Time;durP1;ratioP1;P1;durP2;ratioP2;P2;SDS_P1;SDS_P2;PMS_P1;PMS_P2;Temp;Humidity;BMP_temperature;BMP_pressure;BME280_temperature;BME280_humidity;BME280_pressure;Samples;Min_cycle;Max_cycle;Signal;HPM_P1;HPM_P2
2022/09/25 00:01:09;;;;;;;4.32;1.50;;;14.60;82.50;;;;;;5095296;28;20036;-70
2022/09/25 00:03:34;;;;;;;4.45;1.02;;;14.60;82.40;;;;;;5095262;28;20047;-69
2022/09/25 00:06:22;;;;;;;3.92;1.25;;;14.60;82.40;;;;;;5095227;28;20052;-70
2022/09/25 00:08:48;;;;;;;2.83;1.45;;;14.50;82.20;;;;;;5095185;28;20021;-70
2022/09/25 00:11:26;;;;;;;3.58;1.17;;;14.50;82.30;;;;;;5095118;28;20055;-70
2022/09/25 00:13:52;;;;;;;3.25;1.40;;;14.50;82.20;;;;;;5094070;28;20025;-70
2022/09/25 00:16:21;;;;;;;5.78;1.80;;;14.50;82.20;;;;;;5095033;28;20035;-70
2022/09/25 00:21:32;;;;;;;6.18;1.52;;;14.50;82.00;;;;;;5095133;28;20058;-70
2022/09/25 00:24:00;;;;;;;5.32;1.55;;;14.50;82.00;;;;;;5094854;28;20080;-70
2022/09/25 00:26:32;;;;;;;3.85;1.50;;;14.50;81.90;;;;;;5093922;28;20027;-70
2022/09/25 00:29:02;;;;;;;6.03;1.42;;;14.50;81.90;;;;;;5094758;28;20029;-70
2022/09/25 00:31:28;;;;;;;10.63;1.60;;;14.50;82.80;;;;;;5094708;28;20044;-70
2022/09/25 00:33:57;;;;;;;5.10;1.45;;;14.50;82.00;;;;;;5093609;28;20028;-70
2022/09/25 00:36:22;;;;;;;5.05;1.38;;;14.40;81.90;;;;;;5094585;28;20054;-70
2022/09/25 00:38:48;;;;;;;5.25;1.92;;;14.40;81.90;;;;;;5094479;28;20028;-70
2022/09/25 00:41:19;;;;;;;4.50;1.60;;;14.40;81.70;;;;;;5094527;28;20021;-70
2022/09/25 00:43:49;;;;;;;6.93;2.47;;;14.40;81.70;;;;;;5094520;28;20017;-69
2022/09/25 00:46:27;;;;;;;4.78;1.85;;;14.40;81.70;;;;;;5094413;28;20012;-70
2022/09/25 00:49:02;;;;;;;4.40;1.65;;;14.40;81.60;;;;;;5094415;28;20094;-69
2022/09/25 00:51:41;;;;;;;3.97;1.70;;;14.40;81.60;;;;;;5094349;28;20096;-70
2022/09/25 00:54:14;;;;;;;8.88;1.80;;;14.40;81.60;;;;;;5094277;28;20021;-70
2022/09/25 00:56:43;;;;;;;5.72;1.55;;;14.30;81.60;;;;;;5094252;28;20025;-70
2022/09/25 00:59:12;;;;;;;4.82;1.70;;;14.30;81.80;;;;;;5093904;28;20104;-69
2022/09/25 01:01:38;;;;;;;2.97;1.55;;;14.20;82.00;;;;;;5094104;28;20028;-69
2022/09/25 01:04:05;;;;;;;8.50;1.90;;;14.20;82.10;;;;;;5094020;28;20490;-70
2022/09/25 01:06:31;;;;;;;5.50;1.88;;;14.20;82.20;;;;;;5094010;28;20051;-70
2022/09/25 01:08:58;;;;;;;4.60;1.55;;;14.20;82.10;;;;;;5093982;28;20048;-70
2022/09/25 01:11:24;;;;;;;4.10;1.35;;;14.20;81.90;;;;;;5093950;28;20111;-70
2022/09/25 01:13:54;;;;;;;4.70;1.85;;;14.20;81.80;;;;;;5093871;28;20043;-70
2022/09/25 01:16:56;;;;;;;4.43;1.75;;;14.20;81.60;;;;;;5093914;28;20048;-70
2022/09/25 01:19:40;;;;;;;4.10;1.52;;;14.20;81.60;;;;;;5093881;28;20027;-69
2022/09/25 01:22:25;;;;;;;6.00;1.73;;;14.20;81.60;;;;;;5093785;28;20029;-70
2022/09/25 01:24:57;;;;;;;1.98;1.35;;;14.20;81.50;;;;;;5093740;28;20047;-70
2022/09/25 01:27:40;;;;;;;3.45;1.70;;;14.10;81.70;;;;;;5093888;28;20021;-70
2022/09/25 01:30:17;;;;;;;2.38;1.40;;;14.10;81.60;;;;;;5092277;28;20047;-70
2022/09/25 01:32:55;;;;;;;4.03;1.70;;;14.10;81.60;;;;;;5093669;28;20051;-70
2022/09/25 01:35:42;;;;;;;3.72;1.27;;;14.00;81.50;;;;;;5093625;28;20037;-70
2022/09/25 01:38:35;;;;;;;2.80;1.38;;;14.00;81.50;;;;;;5093535;28;20024;-70
2022/09/25 01:41:38;;;;;;;3.92;1.63;;;14.00;81.50;;;;;;5093712;28;20028;-70
2022/09/25 01:44:17;;;;;;;3.75;1.55;;;14.00;81.40;;;;;;5093541;28;20050;-70
2022/09/25 01:46:47;;;;;;;5.35;2.22;;;13.90;81.50;;;;;;5093471;28;20049;-70
2022/09/25 01:49:21;;;;;;;4.93;1.60;;;13.90;81.50;;;;;;5093588;28;20084;-70
2022/09/25 01:51:52;;;;;;;4.00;1.70;;;13.90;81.40;;;;;;5093428;28;20064;-70
2022/09/25 01:54:46;;;;;;;6.03;1.52;;;13.80;81.40;;;;;;5093400;28;20028;-70
2022/09/25 01:57:22;;;;;;;7.82;2.00;;;13.80;81.50;;;;;;5087501;28;20028;-70
2022/09/25 02:00:04;;;;;;;5.50;1.58;;;13.80;81.50;;;;;;5093129;28;20045;-70
2022/09/25 02:02:36;;;;;;;3.08;1.50;;;13.70;81.60;;;;;;5093353;28;20021;-70
2022/09/25 02:05:11;;;;;;;8.90;2.00;;;13.70;81.60;;;;;;5093329;28;20031;-69
2022/09/25 02:07:46;;;;;;;3.80;1.83;;;13.70;81.60;;;;;;5093439;28;20070;-70
2022/09/25 02:10:18;;;;;;;3.08;1.40;;;13.70;81.60;;;;;;5093380;28;20024;-70
2022/09/25 02:12:48;;;;;;;7.38;1.90;;;13.70;81.60;;;;;;5092216;28;20052;-70
2022/09/25 02:15:42;;;;;;;5.70;1.75;;;13.70;81.50;;;;;;5093245;28;20376;-70
2022/09/25 02:21:41;;;;;;;5.55;2.10;;;13.60;81.50;;;;;;5093383;28;20077;-70
2022/09/25 02:24:22;;;;;;;3.67;1.80;;;13.60;81.40;;;;;;5093166;28;20084;-70
2022/09/25 02:26:49;;;;;;;5.40;1.60;;;13.60;81.40;;;;;;5093235;28;20055;-69
2022/09/25 02:29:15;;;;;;;6.07;2.10;;;13.60;81.60;;;;;;5092010;28;20039;-70
2022/09/25 02:32:08;;;;;;;7.32;1.80;;;13.50;81.70;;;;;;5092972;28;20028;-70
2022/09/25 02:34:35;;;;;;;8.63;1.85;;;13.60;81.60;;;;;;5089744;28;20068;-70
2022/09/25 02:37:00;;;;;;;6.03;2.42;;;13.50;81.60;;;;;;5092945;28;20028;-70
2022/09/25 02:39:28;;;;;;;3.00;1.60;;;13.50;81.60;;;;;;5092875;28;20059;-70
2022/09/25 02:42:23;;;;;;;9.32;1.98;;;13.50;81.80;;;;;;5095277;28;20020;-70
2022/09/25 02:45:07;;;;;;;4.28;1.92;;;13.50;81.70;;;;;;5096745;28;20029;-70
2022/09/25 02:47:34;;;;;;;5.53;1.98;;;13.40;81.70;;;;;;5096879;28;20114;-70
2022/09/25 02:50:19;;;;;;;4.75;1.45;;;13.50;81.80;;;;;;5096632;28;20040;-70
2022/09/25 02:52:51;;;;;;;5.35;2.22;;;13.50;81.70;;;;;;5096635;28;20035;-70
2022/09/25 02:55:31;;;;;;;4.00;1.80;;;13.40;82.60;;;;;;5096759;28;20036;-70
2022/09/25 02:58:24;;;;;;;3.10;1.58;;;13.40;81.80;;;;;;5096533;28;20029;-70
2022/09/25 03:00:52;;;;;;;4.20;1.95;;;13.40;81.60;;;;;;5096637;28;20064;-70
2022/09/25 03:03:19;;;;;;;4.90;2.05;;;13.40;81.70;;;;;;5096413;28;20031;-70
2022/09/25 03:05:48;;;;;;;3.00;1.90;;;13.40;81.70;;;;;;5096358;28;20028;-70
2022/09/25 03:10:58;;;;;;;5.35;1.90;;;13.30;82.50;;;;;;5096347;28;20059;-70
2022/09/25 03:13:30;;;;;;;2.72;1.77;;;13.30;81.80;;;;;;5096354;28;20033;-70
2022/09/25 03:16:19;;;;;;;5.53;1.80;;;13.30;81.80;;;;;;5096243;28;20027;-69
2022/09/25 03:18:44;;;;;;;5.72;1.88;;;13.30;81.60;;;;;;5096092;28;20024;-69
2022/09/25 03:21:10;;;;;;;4.63;2.20;;;13.30;81.70;;;;;;5096094;28;20025;-70
2022/09/25 03:23:36;;;;;;;4.88;2.20;;;13.20;81.60;;;;;;5096025;28;20029;-70
2022/09/25 03:26:03;;;;;;;6.18;1.88;;;13.20;81.70;;;;;;5095997;28;20028;-70
2022/09/25 03:28:29;;;;;;;3.20;1.80;;;13.30;81.70;;;;;;5095900;28;20020;-70
2022/09/25 03:30:56;;;;;;;3.30;1.80;;;13.20;81.50;;;;;;5095898;28;20055;-69
2022/09/25 03:33:21;;;;;;;6.43;1.98;;;13.20;82.30;;;;;;5095857;28;20050;-70
2022/09/25 03:35:47;;;;;;;5.68;2.08;;;13.20;81.40;;;;;;5095960;28;20064;-70
2022/09/25 03:38:12;;;;;;;6.65;2.28;;;13.10;81.60;;;;;;5078057;28;20025;-70
2022/09/25 03:40:38;;;;;;;6.18;1.90;;;13.10;81.80;;;;;;5095855;28;20480;-69
2022/09/25 03:43:04;;;;;;;4.82;2.00;;;13.10;81.60;;;;;;5095697;28;20033;-70
2022/09/25 03:45:30;;;;;;;5.57;2.20;;;13.10;81.30;;;;;;5095775;28;20017;-70
2022/09/25 03:47:55;;;;;;;3.13;2.00;;;13.10;81.30;;;;;;5095617;28;20028;-70
2022/09/25 03:50:21;;;;;;;4.43;2.00;;;13.00;81.20;;;;;;5094517;28;20036;-70
2022/09/25 03:52:46;;;;;;;8.73;2.70;;;13.00;81.20;;;;;;5094298;28;20037;-69
2022/09/25 03:55:12;;;;;;;5.28;2.08;;;12.90;81.20;;;;;;5094532;28;20092;-69
2022/09/25 03:57:38;;;;;;;3.20;1.70;;;12.90;81.30;;;;;;5095426;28;20029;-70
2022/09/25 04:00:05;;;;;;;4.40;2.28;;;12.90;81.30;;;;;;5095152;28;20107;-70
2022/09/25 04:02:31;;;;;;;6.30;2.17;;;12.90;81.40;;;;;;5095320;28;20021;-70
2022/09/25 04:04:58;;;;;;;5.95;2.05;;;12.80;81.20;;;;;;5095307;28;20035;-70
2022/09/25 04:07:24;;;;;;;3.95;2.53;;;12.80;81.50;;;;;;5095236;28;20043;-70
2022/09/25 04:09:50;;;;;;;6.05;2.08;;;12.80;81.60;;;;;;5095176;28;20036;-70
2022/09/25 04:12:16;;;;;;;5.88;2.50;;;12.80;81.40;;;;;;5095146;28;20029;-69
2022/09/25 04:14:44;;;;;;;6.47;2.45;;;12.70;81.30;;;;;;5095077;28;20048;-69
2022/09/25 04:17:10;;;;;;;3.90;2.40;;;12.70;81.40;;;;;;5095052;28;20020;-70
2022/09/25 04:19:36;;;;;;;4.35;2.30;;;12.70;81.00;;;;;;5094917;28;20089;-70
2022/09/25 04:22:01;;;;;;;8.02;2.58;;;12.60;81.00;;;;;;5095023;28;20029;-70
2022/09/25 04:27:11;;;;;;;4.82;2.40;;;12.60;81.20;;;;;;5095068;28;20063;-70
2022/09/25 04:29:37;;;;;;;4.97;2.47;;;12.60;81.30;;;;;;5094700;28;20029;-69
2022/09/25 04:34:47;;;;;;;7.32;2.70;;;12.50;81.00;;;;;;5093914;28;20039;-70
2022/09/25 04:37:13;;;;;;;4.25;2.22;;;12.40;80.80;;;;;;5094635;28;20491;-69
2022/09/25 04:39:39;;;;;;;4.40;2.45;;;12.40;81.10;;;;;;5094520;28;20028;-69
2022/09/25 04:42:05;;;;;;;7.35;2.83;;;12.30;81.00;;;;;;5094499;28;20021;-69
2022/09/25 04:44:31;;;;;;;5.47;2.45;;;12.30;81.10;;;;;;5094449;28;20025;-69
2022/09/25 04:46:56;;;;;;;4.03;2.40;;;12.30;81.20;;;;;;5094567;28;20040;-70
2022/09/25 04:49:22;;;;;;;4.82;2.55;;;12.30;81.10;;;;;;5094368;28;20054;-69
2022/09/25 04:51:48;;;;;;;6.88;2.55;;;12.30;80.80;;;;;;5093613;28;20037;-69
2022/09/25 04:54:15;;;;;;;6.82;2.83;;;12.20;81.00;;;;;;5094265;28;20039;-70
2022/09/25 04:56:42;;;;;;;6.03;2.88;;;12.20;80.90;;;;;;5094227;28;20032;-70
2022/09/25 04:59:10;;;;;;;8.15;2.83;;;12.20;81.20;;;;;;5093943;28;20082;-69
2022/09/25 05:01:37;;;;;;;4.30;2.58;;;12.20;81.10;;;;;;5094133;28;20028;-70
2022/09/25 05:04:03;;;;;;;4.63;2.53;;;12.20;81.00;;;;;;5093431;28;20047;-69
2022/09/25 05:06:29;;;;;;;7.68;2.38;;;12.20;81.00;;;;;;5094035;28;20025;-70
2022/09/25 05:08:56;;;;;;;7.13;2.83;;;12.10;81.20;;;;;;5093987;28;20039;-70
2022/09/25 05:11:22;;;;;;;5.18;2.30;;;12.20;81.30;;;;;;5093953;28;20088;-69
2022/09/25 05:13:51;;;;;;;5.45;2.50;;;12.10;81.10;;;;;;5093912;28;20036;-69
2022/09/25 05:16:17;;;;;;;5.82;2.38;;;12.10;81.10;;;;;;5093897;28;20017;-69
2022/09/25 05:18:42;;;;;;;7.93;2.58;;;12.10;81.00;;;;;;5093770;28;20054;-69
2022/09/25 05:21:08;;;;;;;10.27;2.50;;;12.10;80.90;;;;;;5092861;28;20028;-69
2022/09/25 05:23:33;;;;;;;5.72;2.50;;;12.10;81.00;;;;;;5093753;28;20021;-69
2022/09/25 05:26:02;;;;;;;7.25;2.83;;;12.10;81.20;;;;;;5093720;28;20037;-70
2022/09/25 05:28:29;;;;;;;4.72;2.30;;;12.00;81.00;;;;;;5093611;28;20050;-70
2022/09/25 05:30:57;;;;;;;5.63;2.47;;;12.00;80.90;;;;;;5093636;28;20035;-70
2022/09/25 05:33:22;;;;;;;5.03;2.25;;;12.00;81.20;;;;;;5092745;28;20032;-70
2022/09/25 05:35:48;;;;;;;5.72;2.42;;;12.00;81.40;;;;;;5093589;28;20115;-69
2022/09/25 05:38:14;;;;;;;6.43;2.55;;;12.00;81.40;;;;;;5092550;28;20028;-69
2022/09/25 05:40:39;;;;;;;7.88;2.35;;;12.00;81.40;;;;;;5093534;28;20025;-69
2022/09/25 05:43:05;;;;;;;5.28;2.55;;;11.90;81.20;;;;;;5093482;28;20044;-69
2022/09/25 05:45:33;;;;;;;4.75;2.20;;;11.90;81.20;;;;;;5093600;28;20059;-69
2022/09/25 05:48:04;;;;;;;6.00;2.45;;;11.90;81.10;;;;;;5093469;28;20023;-69
2022/09/25 05:50:33;;;;;;;4.35;1.92;;;11.80;81.10;;;;;;5092453;28;20045;-69
2022/09/25 05:53:01;;;;;;;6.20;2.15;;;11.80;81.30;;;;;;5093408;28;20031;-70
2022/09/25 05:55:27;;;;;;;4.03;2.20;;;11.80;81.40;;;;;;5093367;28;20017;-70
2022/09/25 05:57:53;;;;;;;3.50;2.13;;;11.80;81.30;;;;;;5093348;28;20075;-69
2022/09/25 06:00:19;;;;;;;4.78;2.05;;;11.80;80.80;;;;;;5093128;28;20053;-69
2022/09/25 06:02:45;;;;;;;4.95;2.20;;;11.70;80.80;;;;;;5093281;28;20021;-69
2022/09/25 06:05:10;;;;;;;6.47;2.20;;;11.70;81.00;;;;;;5093258;28;20088;-69
2022/09/25 06:07:36;;;;;;;5.35;2.67;;;11.70;81.20;;;;;;5093251;28;20040;-69
2022/09/25 06:10:02;;;;;;;4.00;2.30;;;11.70;81.70;;;;;;5093243;28;20039;-70
2022/09/25 06:12:28;;;;;;;4.15;2.30;;;11.80;81.80;;;;;;5093338;28;20028;-69
2022/09/25 06:14:54;;;;;;;4.38;2.20;;;11.80;81.60;;;;;;5094004;28;20029;-69
2022/09/25 06:17:20;;;;;;;4.78;2.40;;;11.80;81.50;;;;;;5097343;28;20113;-69
2022/09/25 06:19:46;;;;;;;5.65;2.50;;;11.80;81.60;;;;;;5097193;28;20032;-69
2022/09/25 06:22:12;;;;;;;3.72;2.17;;;11.80;81.90;;;;;;5097226;28;20048;-69
2022/09/25 06:24:38;;;;;;;6.18;2.50;;;11.80;82.20;;;;;;5097185;28;20016;-69
2022/09/25 06:27:05;;;;;;;5.47;2.35;;;11.80;82.50;;;;;;5097150;28;20032;-69
2022/09/25 06:29:31;;;;;;;4.72;2.42;;;11.90;82.70;;;;;;5095972;28;20036;-70
2022/09/25 06:31:56;;;;;;;4.20;2.35;;;11.90;82.70;;;;;;5097038;28;20029;-70
2022/09/25 06:34:22;;;;;;;5.30;2.40;;;11.90;82.90;;;;;;5096994;28;20054;-70
2022/09/25 06:36:48;;;;;;;6.00;2.42;;;12.00;83.10;;;;;;5097107;28;20036;-70
2022/09/25 06:39:14;;;;;;;6.35;2.50;;;12.00;83.10;;;;;;5096801;28;20028;-71
2022/09/25 06:41:40;;;;;;;5.65;2.50;;;12.10;83.30;;;;;;5095949;28;20043;-71
2022/09/25 06:44:07;;;;;;;5.15;2.42;;;12.10;83.30;;;;;;5096788;28;20017;-70
2022/09/25 06:46:34;;;;;;;5.57;2.70;;;12.20;83.50;;;;;;5096777;28;20026;-71
2022/09/25 06:48:59;;;;;;;6.63;2.50;;;12.30;83.60;;;;;;5096841;28;20025;-70
2022/09/25 06:51:31;;;;;;;5.43;2.70;;;12.30;83.60;;;;;;5095697;28;20043;-71
2022/09/25 06:53:57;;;;;;;5.15;2.45;;;12.40;83.70;;;;;;5096573;28;20056;-71
2022/09/25 06:56:23;;;;;;;5.60;2.55;;;12.40;83.70;;;;;;5096543;28;20025;-71
2022/09/25 06:58:49;;;;;;;4.13;2.50;;;12.50;83.70;;;;;;5096177;28;20055;-71
2022/09/25 07:01:15;;;;;;;6.22;2.60;;;12.50;83.90;;;;;;5096424;28;20017;-71
2022/09/25 07:03:44;;;;;;;3.53;2.10;;;12.50;83.80;;;;;;5096384;28;20459;-71
2022/09/25 07:06:12;;;;;;;4.82;2.30;;;12.60;83.80;;;;;;5096383;28;20088;-71
2022/09/25 07:08:38;;;;;;;5.93;3.00;;;12.70;84.00;;;;;;5096185;28;20046;-71
2022/09/25 07:11:05;;;;;;;4.63;2.30;;;12.70;83.90;;;;;;5096246;28;20025;-70
2022/09/25 07:13:33;;;;;;;4.10;2.45;;;12.70;83.80;;;;;;5096241;28;20052;-70
2022/09/25 07:16:07;;;;;;;5.50;2.75;;;12.80;83.90;;;;;;5096180;28;20021;-71
2022/09/25 07:18:33;;;;;;;8.18;2.70;;;12.90;83.90;;;;;;5096015;28;20026;-70
2022/09/25 07:21:01;;;;;;;7.82;2.60;;;12.90;83.90;;;;;;5094872;28;20059;-70
2022/09/25 07:23:27;;;;;;;5.63;2.45;;;12.90;83.90;;;;;;5096049;28;20020;-70
2022/09/25 07:25:53;;;;;;;5.55;2.90;;;13.00;84.00;;;;;;5095922;28;20027;-70
2022/09/25 07:28:19;;;;;;;6.88;3.05;;;13.00;83.90;;;;;;5095130;28;20028;-70
2022/09/25 07:30:45;;;;;;;4.47;2.55;;;13.10;84.00;;;;;;5095022;28;20028;-70
2022/09/25 07:33:11;;;;;;;5.13;2.63;;;13.10;84.00;;;;;;5095889;28;20032;-70
2022/09/25 07:35:36;;;;;;;4.88;2.80;;;13.20;84.10;;;;;;5095787;28;20035;-70
2022/09/25 07:38:03;;;;;;;6.05;2.83;;;13.20;83.90;;;;;;5095779;28;20025;-70
2022/09/25 07:40:32;;;;;;;5.22;2.80;;;13.30;83.90;;;;;;5095794;28;20032;-70
2022/09/25 07:42:59;;;;;;;4.82;2.70;;;13.40;83.90;;;;;;5095713;28;20013;-69
2022/09/25 07:45:24;;;;;;;5.07;3.10;;;13.40;83.80;;;;;;5095674;28;20017;-70
2022/09/25 07:47:54;;;;;;;5.13;2.80;;;13.50;83.70;;;;;;5095631;28;20270;-69
2022/09/25 07:50:19;;;;;;;5.05;2.92;;;13.50;83.70;;;;;;5095564;28;20036;-70
2022/09/25 07:52:45;;;;;;;5.00;2.97;;;13.60;83.50;;;;;;5095557;28;20020;-69
2022/09/25 07:55:11;;;;;;;6.85;2.60;;;13.60;83.40;;;;;;5095493;28;20059;-70
2022/09/25 07:57:36;;;;;;;5.05;2.70;;;13.70;83.40;;;;;;5095425;28;20039;-70
2022/09/25 08:00:04;;;;;;;7.60;2.40;;;13.80;83.30;;;;;;5095187;28;20049;-71
2022/09/25 08:02:30;;;;;;;9.00;2.80;;;13.80;83.30;;;;;;5095352;28;20045;-71
2022/09/25 08:04:55;;;;;;;4.25;2.40;;;13.90;83.20;;;;;;5095263;28;20036;-71
2022/09/25 08:07:21;;;;;;;4.50;2.83;;;13.90;83.10;;;;;;5095269;28;20054;-71
2022/09/25 08:09:46;;;;;;;4.50;2.65;;;14.00;83.10;;;;;;5095224;28;20468;-71
2022/09/25 08:12:12;;;;;;;3.90;2.47;;;14.10;82.90;;;;;;5095177;28;20059;-71
2022/09/25 08:14:38;;;;;;;6.53;2.33;;;14.10;82.70;;;;;;5095260;28;20040;-71
2022/09/25 08:17:03;;;;;;;3.70;2.50;;;14.20;82.60;;;;;;5094107;28;20028;-71
2022/09/25 08:19:29;;;;;;;4.75;2.15;;;14.30;82.60;;;;;;5093928;28;20036;-71
2022/09/25 08:21:55;;;;;;;5.75;2.60;;;14.40;82.40;;;;;;5094943;28;20020;-71
2022/09/25 08:24:20;;;;;;;3.08;2.28;;;14.50;82.20;;;;;;5095050;28;20046;-71
2022/09/25 08:26:46;;;;;;;7.10;2.42;;;14.50;82.00;;;;;;5094865;28;20036;-71
2022/09/25 08:29:11;;;;;;;5.32;2.88;;;14.60;81.80;;;;;;5093752;28;20044;-71
2022/09/25 08:31:37;;;;;;;5.10;2.30;;;14.60;81.70;;;;;;5094735;28;20051;-71
2022/09/25 08:34:03;;;;;;;10.40;2.75;;;14.70;81.60;;;;;;5094717;28;20056;-71
2022/09/25 08:36:28;;;;;;;4.22;2.20;;;14.70;81.30;;;;;;5094580;28;20031;-71
2022/09/25 08:38:55;;;;;;;4.53;2.33;;;14.80;81.30;;;;;;5093470;28;20093;-71
2022/09/25 08:41:29;;;;;;;5.18;2.20;;;14.90;81.30;;;;;;5093521;28;20044;-71
2022/09/25 08:44:15;;;;;;;4.75;2.70;;;15.00;81.20;;;;;;5094537;28;20058;-71
2022/09/25 08:49:39;;;;;;;6.00;2.85;;;15.20;81.20;;;;;;5094627;28;20031;-71
2022/09/25 08:52:10;;;;;;;6.38;2.50;;;15.30;81.20;;;;;;5094371;28;20021;-71
2022/09/25 08:54:36;;;;;;;6.63;1.92;;;15.40;81.30;;;;;;5094354;28;20025;-71
2022/09/25 08:57:16;;;;;;;5.18;2.30;;;15.50;81.00;;;;;;5094254;28;20061;-71
2022/09/25 08:59:46;;;;;;;2.58;1.77;;;15.60;80.80;;;;;;5093975;28;20052;-71
2022/09/25 09:02:23;;;;;;;2.92;1.70;;;15.70;80.40;;;;;;5094152;28;20558;-71
2022/09/25 09:04:55;;;;;;;3.90;1.65;;;15.80;80.00;;;;;;5094162;28;20012;-71
2022/09/25 09:07:43;;;;;;;6.25;1.58;;;15.80;79.40;;;;;;5094055;28;20047;-71
2022/09/25 09:10:27;;;;;;;4.15;1.60;;;15.90;79.40;;;;;;5093379;28;20044;-71
2022/09/25 09:13:21;;;;;;;5.55;1.40;;;16.00;79.00;;;;;;5094020;28;20028;-71
2022/09/25 09:16:28;;;;;;;4.13;1.63;;;16.10;78.20;;;;;;5087817;28;20036;-72
2022/09/25 09:18:54;;;;;;;3.85;1.70;;;16.20;77.90;;;;;;5092827;28;20028;-71
2022/09/25 09:21:36;;;;;;;5.22;1.50;;;16.30;77.80;;;;;;5093771;28;20025;-71
2022/09/25 09:24:05;;;;;;;5.82;1.40;;;16.40;77.30;;;;;;5093826;28;20027;-71
2022/09/25 09:26:31;;;;;;;3.05;1.13;;;16.40;76.90;;;;;;5093740;28;20035;-71
2022/09/25 09:29:18;;;;;;;2.70;1.10;;;16.50;76.70;;;;;;5093613;28;20028;-72
2022/09/25 09:31:52;;;;;;;5.88;1.60;;;16.60;75.60;;;;;;5092750;28;20025;-72
2022/09/25 09:34:18;;;;;;;4.53;1.58;;;16.80;75.80;;;;;;5093821;28;20035;-71
2022/09/25 09:37:05;;;;;;;6.03;1.23;;;16.90;75.60;;;;;;5093579;28;20028;-71
2022/09/25 09:39:36;;;;;;;5.60;0.90;;;17.00;73.70;;;;;;5093518;28;20066;-71
2022/09/25 09:42:09;;;;;;;2.75;0.80;;;17.00;73.90;;;;;;5093522;28;20020;-71
2022/09/25 09:44:58;;;;;;;5.32;0.77;;;17.10;73.70;;;;;;5093529;28;20025;-71
2022/09/25 09:47:42;;;;;;;2.45;0.90;;;17.10;73.20;;;;;;5093515;28;20043;-71
2022/09/25 09:50:35;;;;;;;3.33;1.00;;;17.10;72.30;;;;;;5093252;28;20025;-71
2022/09/25 09:53:14;;;;;;;3.42;0.70;;;17.00;72.30;;;;;;5093566;28;20028;-71
2022/09/25 09:55:51;;;;;;;2.70;0.65;;;17.10;72.50;;;;;;5093463;28;20020;-71
2022/09/25 09:58:26;;;;;;;2.45;0.68;;;17.10;72.00;;;;;;5093080;28;20029;-72
2022/09/25 10:00:54;;;;;;;1.98;0.80;;;17.00;71.50;;;;;;5093373;28;20051;-71
2022/09/25 10:03:34;;;;;;;1.83;0.70;;;17.00;71.50;;;;;;5093472;28;20048;-71
2022/09/25 10:06:08;;;;;;;2.63;0.75;;;17.00;71.30;;;;;;5093331;28;20060;-71
2022/09/25 10:08:34;;;;;;;2.35;0.90;;;16.90;71.10;;;;;;5093454;28;20017;-71
2022/09/25 10:11:08;;;;;;;1.80;0.60;;;16.90;71.00;;;;;;5093246;28;20051;-71
2022/09/25 10:13:38;;;;;;;2.92;0.75;;;16.90;70.80;;;;;;5093226;28;20032;-71
2022/09/25 10:16:10;;;;;;;1.92;0.60;;;16.90;70.50;;;;;;5093162;28;20039;-71
2022/09/25 10:18:48;;;;;;;2.35;0.70;;;16.90;70.70;;;;;;5093142;28;20020;-71
2022/09/25 10:21:17;;;;;;;2.88;0.77;;;16.90;70.80;;;;;;5093164;28;20021;-71
2022/09/25 10:23:51;;;;;;;2.58;0.60;;;17.00;71.00;;;;;;5092961;28;20020;-71
2022/09/25 10:26:43;;;;;;;1.85;0.40;;;17.20;71.10;;;;;;5093130;28;20024;-71
2022/09/25 10:29:18;;;;;;;3.17;0.95;;;17.40;70.20;;;;;;5090115;28;20040;-71
2022/09/25 10:31:44;;;;;;;3.63;0.70;;;17.50;69.30;;;;;;5093045;28;20028;-71
2022/09/25 10:34:16;;;;;;;3.72;0.50;;;17.50;68.00;;;;;;5092769;28;20059;-71
2022/09/25 10:36:47;;;;;;;2.17;0.60;;;17.60;66.60;;;;;;5092997;28;20029;-70
2022/09/25 10:39:39;;;;;;;0.65;0.50;;;17.60;66.30;;;;;;5093019;28;20092;-71
2022/09/25 10:42:33;;;;;;;0.52;0.30;;;17.80;66.40;;;;;;5089992;28;20040;-71
2022/09/25 10:44:59;;;;;;;3.40;0.77;;;17.90;64.60;;;;;;5091888;28;20040;-71
2022/09/25 10:50:19;;;;;;;3.38;0.73;;;18.20;65.50;;;;;;5093133;28;20062;-71
2022/09/25 10:52:58;;;;;;;2.30;0.60;;;18.30;65.70;;;;;;5092816;28;20029;-71
2022/09/25 10:55:29;;;;;;;0.82;0.50;;;18.20;63.50;;;;;;5092869;28;20035;-71
2022/09/25 10:58:24;;;;;;;1.52;0.45;;;18.10;63.80;;;;;;5092948;28;20052;-71
2022/09/25 11:00:50;;;;;;;4.10;0.57;;;18.00;63.80;;;;;;5092889;28;20028;-70
2022/09/25 11:03:33;;;;;;;4.47;0.93;;;18.00;64.10;;;;;;5095557;28;20013;-71
2022/09/25 11:06:08;;;;;;;;;;;18.10;63.80;;;;;;5096859;28;20027;-71
2022/09/25 11:08:38;;;;;;;3.92;1.13;;;18.20;64.10;;;;;;5096384;28;19944;-70
2022/09/25 11:11:06;;;;;;;3.15;0.60;;;18.30;63.90;;;;;;5096576;28;20023;-71
2022/09/25 11:13:57;;;;;;;2.47;0.82;;;18.40;63.70;;;;;;5096287;28;20089;-71
2022/09/25 11:17:00;;;;;;;1.85;0.50;;;18.60;61.40;;;;;;5096251;28;20523;-71
2022/09/25 11:19:27;;;;;;;1.88;0.50;;;18.70;60.50;;;;;;5094309;28;20029;-71
2022/09/25 11:21:58;;;;;;;1.95;0.60;;;18.80;61.90;;;;;;5096124;28;20021;-70
2022/09/25 11:24:39;;;;;;;1.88;0.60;;;19.00;61.70;;;;;;5096106;28;20021;-71
2022/09/25 11:27:37;;;;;;;1.33;0.60;;;19.00;60.70;;;;;;5096235;28;20017;-71
2022/09/25 11:30:09;;;;;;;2.67;0.60;;;19.00;61.50;;;;;;5096070;28;20025;-71
2022/09/25 11:32:53;;;;;;;2.15;0.55;;;18.90;61.10;;;;;;5095930;28;20020;-71
2022/09/25 11:35:44;;;;;;;2.15;0.73;;;18.90;61.00;;;;;;5095916;28;20029;-71
2022/09/25 11:41:54;;;;;;;0.85;0.60;;;18.90;60.50;;;;;;5082106;28;20032;-70
2022/09/25 11:44:30;;;;;;;1.55;0.65;;;18.90;60.30;;;;;;5095052;28;20094;-71
2022/09/25 11:47:15;;;;;;;1.88;0.50;;;18.90;60.40;;;;;;5095717;28;20035;-71
2022/09/25 11:49:41;;;;;;;0.93;0.50;;;18.80;60.40;;;;;;5095668;28;20035;-71
2022/09/25 11:52:14;;;;;;;1.65;0.50;;;18.70;59.90;;;;;;5095590;28;20060;-70
2022/09/25 11:55:17;;;;;;;0.75;0.43;;;18.80;60.20;;;;;;5095565;28;20088;-71
2022/09/25 11:58:01;;;;;;;1.42;0.55;;;18.80;59.00;;;;;;5095508;28;20035;-71
2022/09/25 12:01:15;;;;;;;4.07;0.90;;;18.90;58.10;;;;;;5095495;28;20056;-70
2022/09/25 12:04:11;;;;;;;2.47;0.32;;;19.10;58.00;;;;;;5048962;28;20062;-71
2022/09/25 12:06:56;;;;;;;2.35;0.52;;;19.30;57.30;;;;;;5095512;28;20013;-70
2022/09/25 12:10:03;;;;;;;3.60;0.70;;;19.50;57.50;;;;;;5095432;28;20020;-71
2022/09/25 12:12:38;;;;;;;1.88;0.50;;;19.60;56.40;;;;;;5095030;28;20024;-71
2022/09/25 12:15:31;;;;;;;1.50;0.60;;;19.70;57.30;;;;;;5095181;28;20029;-71
2022/09/25 12:18:11;;;;;;;1.35;0.70;;;19.70;56.90;;;;;;5094136;28;20033;-70
2022/09/25 12:20:56;;;;;;;5.68;0.82;;;19.80;58.20;;;;;;5095124;28;20023;-71
2022/09/25 12:23:32;;;;;;;0.57;0.50;;;20.00;57.20;;;;;;5093948;28;20023;-71
2022/09/25 12:26:14;;;;;;;2.90;0.60;;;20.10;57.20;;;;;;5094903;28;20024;-71
2022/09/25 12:28:51;;;;;;;3.03;0.90;;;20.20;57.00;;;;;;5094952;28;20088;-71
2022/09/25 12:31:33;;;;;;;1.65;0.47;;;20.20;56.80;;;;;;5095014;28;20259;-71
2022/09/25 12:34:16;;;;;;;4.55;0.50;;;20.20;55.50;;;;;;5094967;28;20084;-71
2022/09/25 12:36:55;;;;;;;2.75;0.50;;;20.10;56.90;;;;;;5094745;28;20036;-71
2022/09/25 12:39:34;;;;;;;1.25;0.55;;;20.20;56.40;;;;;;5093631;28;20055;-70
2022/09/25 12:42:15;;;;;;;1.85;0.50;;;20.30;55.10;;;;;;5094637;28;20080;-71
2022/09/25 12:44:48;;;;;;;2.73;0.33;;;20.40;55.20;;;;;;5094583;28;20051;-71
2022/09/25 12:47:41;;;;;;;2.45;0.57;;;20.50;55.50;;;;;;5094590;28;20028;-70
2022/09/25 12:50:22;;;;;;;1.13;0.45;;;20.60;52.90;;;;;;5094618;28;20021;-71
2022/09/25 12:53:16;;;;;;;0.80;0.30;;;20.50;51.30;;;;;;5094430;28;20075;-71
2022/09/25 12:55:46;;;;;;;2.78;0.47;;;20.40;50.90;;;;;;5094367;28;20408;-71
2022/09/25 12:58:28;;;;;;;2.20;0.40;;;20.40;51.40;;;;;;5094095;28;20021;-71
2022/09/25 13:01:05;;;;;;;1.30;0.70;;;20.40;51.90;;;;;;5094170;28;20086;-71
2022/09/25 13:03:53;;;;;;;2.67;0.43;;;20.50;51.60;;;;;;5093158;28;20030;-72
2022/09/25 13:06:51;;;;;;;1.85;0.50;;;20.60;52.20;;;;;;5094294;28;20020;-71
2022/09/25 13:09:44;;;;;;;2.22;0.50;;;20.70;51.40;;;;;;5089592;28;20048;-71
2022/09/25 13:12:16;;;;;;;;;;;20.60;48.80;;;;;;5094466;28;20020;-70
2022/09/25 13:14:56;;;;;;;1.13;0.32;;;20.50;49.70;;;;;;5094133;28;19915;-71
2022/09/25 13:17:22;;;;;;;1.98;0.50;;;20.40;50.50;;;;;;5093962;28;20029;-71
2022/09/25 13:19:48;;;;;;;1.13;0.45;;;20.40;50.50;;;;;;5093788;28;20050;-71
2022/09/25 13:22:21;;;;;;;1.45;0.43;;;20.40;50.90;;;;;;5093822;28;20029;-70
2022/09/25 13:25:04;;;;;;;0.85;0.10;;;20.50;51.30;;;;;;5093240;28;20029;-71
2022/09/25 13:27:40;;;;;;;2.30;0.38;;;20.60;50.30;;;;;;5093927;28;20016;-71
2022/09/25 13:30:18;;;;;;;1.48;0.40;;;20.70;49.60;;;;;;5093642;28;20080;-71
2022/09/25 13:32:49;;;;;;;2.10;0.38;;;20.70;49.90;;;;;;5093814;28;20017;-71
2022/09/25 13:35:17;;;;;;;0.83;0.23;;;20.70;49.80;;;;;;5093861;28;20016;-70
2022/09/25 13:37:43;;;;;;;1.52;0.40;;;20.80;50.90;;;;;;5093609;28;20025;-71
2022/09/25 13:40:41;;;;;;;0.93;0.40;;;20.90;50.30;;;;;;5093495;28;20033;-71